createdAt,value
2022-11-05T00:01:02.019Z,1.00
2022-11-05T00:03:47.161Z,1.13
2022-11-05T00:06:32.378Z,1.20
2022-11-05T00:12:31.493Z,1.05
2022-11-05T00:15:16.699Z,0.82
2022-11-05T00:17:44.247Z,1.00
2022-11-05T00:20:16.963Z,1.10
2022-11-05T00:23:01.903Z,1.10
2022-11-05T00:25:31.047Z,0.90
2022-11-05T00:28:02.198Z,1.00
2022-11-05T00:30:31.404Z,0.80
2022-11-05T00:33:03.388Z,1.17
2022-11-05T00:35:30.865Z,1.10
2022-11-05T00:37:58.317Z,1.08
2022-11-05T00:40:25.765Z,0.93
2022-11-05T00:43:12.544Z,0.95
2022-11-05T00:45:41.014Z,0.95
2022-11-05T00:48:26.219Z,0.80
2022-11-05T00:50:53.661Z,1.00
2022-11-05T00:53:21.270Z,1.10
2022-11-05T00:55:48.903Z,1.00
2022-11-05T00:58:22.945Z,1.00
2022-11-05T01:00:52.173Z,1.05
2022-11-05T01:03:22.659Z,1.00
2022-11-05T01:05:52.058Z,1.10
2022-11-05T01:08:21.205Z,1.05
2022-11-05T01:10:51.049Z,1.05
2022-11-05T01:13:22.150Z,1.10
2022-11-05T01:15:51.008Z,1.05
2022-11-05T01:18:19.151Z,1.08
2022-11-05T01:20:47.010Z,1.08
2022-11-05T01:23:14.925Z,1.08
2022-11-05T01:25:42.761Z,1.05
2022-11-05T01:28:10.776Z,1.00
2022-11-05T01:30:39.626Z,1.10
2022-11-05T01:33:07.431Z,1.05
2022-11-05T01:35:34.879Z,1.00
2022-11-05T01:38:02.494Z,0.85
2022-11-05T01:40:29.960Z,1.10
2022-11-05T01:42:57.729Z,1.20
2022-11-05T01:45:27.613Z,1.13
2022-11-05T01:48:01.714Z,1.10
2022-11-05T01:50:47.353Z,1.10
2022-11-05T01:53:24.972Z,1.00
2022-11-05T01:55:58.572Z,1.13
2022-11-05T01:58:31.504Z,1.08
2022-11-05T02:00:58.965Z,0.98
2022-11-05T02:03:28.053Z,1.05
2022-11-05T02:05:57.525Z,0.93
2022-11-05T02:08:37.543Z,0.90
2022-11-05T02:11:05.441Z,1.00
2022-11-05T02:13:32.865Z,0.90
2022-11-05T02:16:07.754Z,0.90
2022-11-05T02:18:49.080Z,0.95
2022-11-05T02:21:48.817Z,1.02
2022-11-05T02:24:51.916Z,1.00
2022-11-05T02:27:29.083Z,0.90
2022-11-05T02:30:10.568Z,0.98
2022-11-05T02:32:56.448Z,0.90
2022-11-05T02:35:45.396Z,0.80
2022-11-05T02:38:27.428Z,0.90
2022-11-05T02:41:04.946Z,0.85
2022-11-05T02:43:45.387Z,0.93
2022-11-05T02:46:24.977Z,0.80
2022-11-05T02:48:59.068Z,0.80
2022-11-05T02:51:39.965Z,0.90
2022-11-05T02:54:15.956Z,0.88
2022-11-05T02:56:47.443Z,1.00
2022-11-05T02:59:15.170Z,1.05
2022-11-05T03:01:45.179Z,1.10
2022-11-05T03:04:16.060Z,0.98
2022-11-05T03:07:01.649Z,1.10
2022-11-05T03:09:42.786Z,0.90
2022-11-05T03:12:22.246Z,0.82
2022-11-05T03:14:58.834Z,0.90
2022-11-05T03:17:34.507Z,0.90
2022-11-05T03:20:15.027Z,1.00
2022-11-05T03:22:48.343Z,1.30
2022-11-05T03:25:23.917Z,1.15
2022-11-05T03:27:56.768Z,1.20
2022-11-05T03:30:25.179Z,1.20
2022-11-05T03:32:59.186Z,1.10
2022-11-05T03:35:31.704Z,1.20
2022-11-05T03:38:03.222Z,1.00
2022-11-05T03:40:35.892Z,1.30
2022-11-05T03:43:07.478Z,1.20
2022-11-05T03:45:39.705Z,1.10
2022-11-05T03:48:11.429Z,1.23
2022-11-05T03:50:46.049Z,1.20
2022-11-05T03:53:17.905Z,1.30
2022-11-05T03:55:53.822Z,1.27
2022-11-05T03:58:23.993Z,1.20
2022-11-05T04:00:52.117Z,1.20
2022-11-05T04:03:19.923Z,1.00
2022-11-05T04:06:09.190Z,0.80
2022-11-05T04:08:54.432Z,0.90
2022-11-05T04:11:39.733Z,0.90
2022-11-05T04:14:07.184Z,1.08
2022-11-05T04:16:52.180Z,1.13
2022-11-05T04:19:40.417Z,1.00
2022-11-05T04:22:26.922Z,0.90
2022-11-05T04:24:54.372Z,0.98
2022-11-05T04:27:21.852Z,0.95
2022-11-05T04:30:06.812Z,0.95
2022-11-05T04:32:34.301Z,0.90
2022-11-05T04:35:01.760Z,1.00
2022-11-05T04:37:30.546Z,1.17
2022-11-05T04:39:58.005Z,0.95
2022-11-05T04:42:25.717Z,1.42
2022-11-05T04:44:53.171Z,1.10
2022-11-05T04:47:20.685Z,1.40
2022-11-05T04:49:48.143Z,1.70
2022-11-05T04:52:16.457Z,1.73
2022-11-05T04:54:45.263Z,1.60
2022-11-05T04:57:12.737Z,1.73
2022-11-05T04:59:41.043Z,1.60
2022-11-05T05:02:08.598Z,1.50
2022-11-05T05:04:36.084Z,1.80
2022-11-05T05:07:03.695Z,1.67
2022-11-05T05:09:31.172Z,1.90
2022-11-05T05:12:00.248Z,1.75
2022-11-05T05:14:27.706Z,1.60
2022-11-05T05:16:55.172Z,1.52
2022-11-05T05:19:22.702Z,1.80
2022-11-05T05:21:49.175Z,1.67
2022-11-05T05:24:18.954Z,1.92
2022-11-05T05:26:48.075Z,2.33
2022-11-05T05:29:17.426Z,1.92
2022-11-05T05:31:45.599Z,2.08
2022-11-05T05:34:14.661Z,2.08
2022-11-05T05:36:42.358Z,1.70
2022-11-05T05:39:11.288Z,1.55
2022-11-05T05:41:38.929Z,1.30
2022-11-05T05:44:07.149Z,1.20
2022-11-05T05:46:35.952Z,1.20
2022-11-05T05:49:06.680Z,1.40
2022-11-05T05:51:38.801Z,1.40
2022-11-05T05:54:07.348Z,1.33
2022-11-05T05:56:34.802Z,1.40
2022-11-05T05:59:02.233Z,1.30
2022-11-05T06:01:29.697Z,1.33
2022-11-05T06:03:58.528Z,1.30
2022-11-05T06:06:25.984Z,1.30
2022-11-05T06:08:53.418Z,1.38
2022-11-05T06:11:20.865Z,1.20
2022-11-05T06:13:48.292Z,1.38
2022-11-05T06:19:09.140Z,1.40
2022-11-05T06:21:36.622Z,1.45
2022-11-05T06:26:56.209Z,1.40
2022-11-05T06:29:23.816Z,1.30
2022-11-05T06:31:51.288Z,1.40
2022-11-05T06:37:12.401Z,1.15
2022-11-05T06:39:39.880Z,1.38
2022-11-05T06:42:22.601Z,1.40
2022-11-05T06:44:50.111Z,1.30
2022-11-05T06:47:17.552Z,1.30
2022-11-05T06:49:46.725Z,1.20
2022-11-05T06:52:16.254Z,1.20
2022-11-05T06:54:44.416Z,1.20
2022-11-05T06:57:13.297Z,1.50
2022-11-05T06:59:41.138Z,1.50
2022-11-05T07:02:12.604Z,1.25
2022-11-05T07:04:40.102Z,1.35
2022-11-05T07:07:08.877Z,1.30
2022-11-05T07:09:38.444Z,1.33
2022-11-05T07:12:06.401Z,1.50
2022-11-05T07:14:33.849Z,1.45
2022-11-05T07:17:01.280Z,1.27
2022-11-05T07:19:28.737Z,1.30
2022-11-05T07:21:56.162Z,1.20
2022-11-05T07:24:25.066Z,1.27
2022-11-05T07:26:52.597Z,1.20
2022-11-05T07:29:20.095Z,1.10
2022-11-05T07:31:47.952Z,1.20
2022-11-05T07:34:15.477Z,1.30
2022-11-05T07:36:42.929Z,1.30
2022-11-05T07:39:10.866Z,1.50
2022-11-05T07:41:39.741Z,1.40
2022-11-05T07:44:07.382Z,1.33
2022-11-05T07:46:34.961Z,1.40
2022-11-05T07:49:02.412Z,1.33
2022-11-05T07:54:26.295Z,1.30
2022-11-05T07:56:55.099Z,1.27
2022-11-05T07:59:25.980Z,1.17
2022-11-05T08:01:53.628Z,1.20
2022-11-05T08:04:21.293Z,1.40
2022-11-05T08:06:48.770Z,1.10
2022-11-05T08:09:16.313Z,1.10
2022-11-05T08:11:46.817Z,1.13
2022-11-05T08:14:15.613Z,1.23
2022-11-05T08:16:43.135Z,1.25
2022-11-05T08:19:10.779Z,1.30
2022-11-05T08:21:42.084Z,1.25
2022-11-05T08:24:10.325Z,1.50
2022-11-05T08:26:37.882Z,1.42
2022-11-05T08:29:05.345Z,1.20
2022-11-05T08:31:36.952Z,1.40
2022-11-05T08:34:04.445Z,1.30
2022-11-05T08:36:32.007Z,1.17
2022-11-05T08:38:59.528Z,1.05
2022-11-05T08:41:27.195Z,1.00
2022-11-05T08:43:55.798Z,1.23
2022-11-05T08:46:23.494Z,1.00
2022-11-05T08:48:53.071Z,0.98
2022-11-05T08:51:20.586Z,1.00
2022-11-05T08:53:48.238Z,0.90
2022-11-05T08:56:15.971Z,1.05
2022-11-05T08:58:43.699Z,0.90
2022-11-05T09:01:11.464Z,0.85
2022-11-05T09:03:39.042Z,1.00
2022-11-05T09:06:08.732Z,0.90
2022-11-05T09:08:36.244Z,0.88
2022-11-05T09:11:03.728Z,0.85
2022-11-05T09:13:31.193Z,0.90
2022-11-05T09:15:59.131Z,0.95
2022-11-05T09:18:26.784Z,1.00
2022-11-05T09:20:54.302Z,0.80
2022-11-05T09:23:23.098Z,0.90
2022-11-05T09:25:50.541Z,1.00
2022-11-05T09:28:20.359Z,0.90
2022-11-05T09:30:49.614Z,1.17
2022-11-05T09:33:18.767Z,0.80
2022-11-05T09:35:46.856Z,0.90
2022-11-05T09:38:14.541Z,1.00
2022-11-05T09:40:56.286Z,1.20
2022-11-05T09:43:31.684Z,1.10
2022-11-05T09:46:04.143Z,1.38
2022-11-05T09:48:34.265Z,1.30
2022-11-05T09:51:01.851Z,1.42
2022-11-05T09:53:29.468Z,1.30
2022-11-05T09:56:01.407Z,1.10
2022-11-05T09:58:38.735Z,1.00
2022-11-05T10:01:12.180Z,1.08
2022-11-05T10:03:45.796Z,1.00
2022-11-05T10:06:21.372Z,1.20
2022-11-05T10:08:55.189Z,1.30
2022-11-05T10:11:30.782Z,1.13
2022-11-05T10:14:01.491Z,1.10
2022-11-05T10:16:33.449Z,1.05
2022-11-05T10:19:09.647Z,0.80
2022-11-05T10:22:05.599Z,0.85
2022-11-05T10:24:29.561Z,1.00
2022-11-05T10:26:59.037Z,0.70
2022-11-05T10:29:30.212Z,0.85
2022-11-05T10:31:59.722Z,1.00
2022-11-05T10:34:34.425Z,1.00
2022-11-05T10:37:02.231Z,1.20
2022-11-05T10:39:32.115Z,0.82
2022-11-05T10:42:23.970Z,0.75
2022-11-05T10:44:58.127Z,0.73
2022-11-05T10:47:41.046Z,0.80
2022-11-05T10:50:11.812Z,1.30
2022-11-05T10:52:43.413Z,0.80
2022-11-05T10:55:17.568Z,0.80
2022-11-05T10:57:49.337Z,0.70
2022-11-05T11:00:24.965Z,0.82
2022-11-05T11:02:54.793Z,0.73
2022-11-05T11:05:25.852Z,0.45
2022-11-05T11:08:01.441Z,0.60
2022-11-05T11:10:31.161Z,0.60
2022-11-05T11:13:00.401Z,0.70
2022-11-05T11:15:32.418Z,0.75
2022-11-05T11:18:18.998Z,0.70
2022-11-05T11:20:46.755Z,0.80
2022-11-05T11:23:16.219Z,0.90
2022-11-05T11:25:48.352Z,1.10
2022-11-05T11:28:22.354Z,0.80
2022-11-05T11:30:55.019Z,0.70
2022-11-05T11:33:27.075Z,0.65
2022-11-05T11:35:55.406Z,1.20
2022-11-05T11:38:24.247Z,1.10
2022-11-05T11:40:52.407Z,0.70
2022-11-05T11:43:28.796Z,0.77
2022-11-05T11:46:03.752Z,0.85
2022-11-05T11:48:36.788Z,0.73
2022-11-05T11:51:18.422Z,0.60
2022-11-05T11:53:49.401Z,0.60
2022-11-05T11:56:20.154Z,0.70
2022-11-05T11:58:51.314Z,0.65
2022-11-05T12:01:37.582Z,0.80
2022-11-05T12:04:18.941Z,0.50
2022-11-05T12:06:58.029Z,0.60
2022-11-05T12:09:37.988Z,0.70
2022-11-05T12:12:11.642Z,0.68
2022-11-05T12:14:48.459Z,0.50
2022-11-05T12:17:29.546Z,0.50
2022-11-05T12:20:16.441Z,0.40
2022-11-05T12:22:58.860Z,0.50
2022-11-05T12:25:29.870Z,0.60
2022-11-05T12:28:19.001Z,0.60
2022-11-05T12:30:54.325Z,0.60
2022-11-05T12:33:28.421Z,0.40
2022-11-05T12:36:07.463Z,0.60
2022-11-05T12:38:55.289Z,0.60
2022-11-05T12:41:28.044Z,0.60
2022-11-05T12:44:14.369Z,0.45
2022-11-05T12:46:49.037Z,1.05
2022-11-05T12:49:43.771Z,0.43
2022-11-05T12:52:23.694Z,0.60
2022-11-05T12:55:03.097Z,0.90
2022-11-05T12:57:33.176Z,0.60
2022-11-05T13:00:07.187Z,0.68
2022-11-05T13:02:42.045Z,0.90
2022-11-05T13:05:15.760Z,1.10
2022-11-05T13:07:50.378Z,0.55
2022-11-05T13:10:26.006Z,0.70
2022-11-05T13:13:01.413Z,0.55
2022-11-05T13:15:32.842Z,0.57
2022-11-05T13:18:06.607Z,0.65
2022-11-05T13:20:39.671Z,0.90
2022-11-05T13:23:30.562Z,0.60
2022-11-05T13:26:03.370Z,0.52
2022-11-05T13:28:39.909Z,0.60
2022-11-05T13:31:14.439Z,0.60
2022-11-05T13:33:45.197Z,0.43
2022-11-05T13:36:42.116Z,1.08
2022-11-05T13:39:20.768Z,0.40
2022-11-05T13:42:01.590Z,0.50
2022-11-05T13:45:07.860Z,0.40
2022-11-05T13:47:59.988Z,0.50
2022-11-05T13:51:00.927Z,0.47
2022-11-05T13:53:48.911Z,0.50
2022-11-05T13:56:30.508Z,0.45
2022-11-05T13:59:35.245Z,0.45
2022-11-05T14:02:11.311Z,0.47
2022-11-05T14:04:41.323Z,0.60
2022-11-05T14:07:14.746Z,0.40
2022-11-05T14:09:44.298Z,0.90
2022-11-05T14:12:22.260Z,0.40
2022-11-05T14:14:58.531Z,0.40
2022-11-05T14:17:36.446Z,1.50
2022-11-05T14:20:23.820Z,0.50
2022-11-05T14:22:51.814Z,0.40
2022-11-05T14:25:54.465Z,0.50
2022-11-05T14:28:47.724Z,0.30
2022-11-05T14:32:02.844Z,0.40
2022-11-05T14:34:38.083Z,0.40
2022-11-05T14:37:24.513Z,0.60
2022-11-05T14:39:53.212Z,0.40
2022-11-05T14:42:25.418Z,0.40
2022-11-05T14:45:09.011Z,0.45
2022-11-05T14:47:39.660Z,0.38
2022-11-05T14:50:17.301Z,0.30
2022-11-05T14:52:53.146Z,0.40
2022-11-05T14:55:28.366Z,0.43
2022-11-05T14:58:06.809Z,0.40
2022-11-05T15:00:49.007Z,0.50
2022-11-05T15:03:35.241Z,0.40
2022-11-05T15:06:23.106Z,0.60
2022-11-05T15:09:00.427Z,0.55
2022-11-05T15:11:34.052Z,0.40
2022-11-05T15:14:06.166Z,0.50
2022-11-05T15:16:36.859Z,0.40
2022-11-05T15:19:06.486Z,0.40
2022-11-05T15:21:36.954Z,0.40
2022-11-05T15:24:05.425Z,0.50
2022-11-05T15:26:45.979Z,0.40
2022-11-05T15:29:21.471Z,0.50
2022-11-05T15:31:50.129Z,0.40
2022-11-05T15:34:21.937Z,0.43
2022-11-05T15:36:52.389Z,0.40
2022-11-05T15:39:30.630Z,0.50
2022-11-05T15:41:59.350Z,0.40
2022-11-05T15:44:31.089Z,0.40
2022-11-05T15:47:13.145Z,0.45
2022-11-05T15:49:45.852Z,0.60
2022-11-05T15:52:15.462Z,0.70
2022-11-05T15:54:43.885Z,0.60
2022-11-05T15:57:24.174Z,0.60
2022-11-05T15:59:53.100Z,0.60
2022-11-05T16:02:29.415Z,0.60
2022-11-05T16:04:58.260Z,0.50
2022-11-05T16:07:26.264Z,0.70
2022-11-05T16:09:56.962Z,0.55
2022-11-05T16:12:30.834Z,0.55
2022-11-05T16:15:01.732Z,0.50
2022-11-05T16:17:32.966Z,0.50
2022-11-05T16:20:00.592Z,0.50
2022-11-05T16:22:45.637Z,0.40
2022-11-05T16:25:47.407Z,0.47
2022-11-05T16:28:23.384Z,0.45
2022-11-05T16:30:57.435Z,0.50
2022-11-05T16:33:27.468Z,0.50
2022-11-05T16:35:54.945Z,0.50
2022-11-05T16:38:22.941Z,0.60
2022-11-05T16:40:50.435Z,0.50
2022-11-05T16:43:20.491Z,0.50
2022-11-05T16:45:48.319Z,0.43
2022-11-05T16:48:17.506Z,0.50
2022-11-05T16:50:45.572Z,0.60
2022-11-05T16:53:13.373Z,0.50
2022-11-05T16:55:43.101Z,0.52
2022-11-05T16:58:19.794Z,0.60
2022-11-05T17:00:47.802Z,0.63
2022-11-05T17:03:16.675Z,0.60
2022-11-05T17:05:44.822Z,0.70
2022-11-05T17:08:12.667Z,0.80
2022-11-05T17:10:40.326Z,0.60
2022-11-05T17:13:07.797Z,0.60
2022-11-05T17:15:35.945Z,0.60
2022-11-05T17:18:05.507Z,0.73
2022-11-05T17:20:40.832Z,0.52
2022-11-05T17:23:10.829Z,0.60
2022-11-05T17:25:39.331Z,0.60
2022-11-05T17:28:07.180Z,0.50
2022-11-05T17:30:34.954Z,0.70
2022-11-05T17:33:02.873Z,0.60
2022-11-05T17:35:30.421Z,0.80
2022-11-05T17:37:59.286Z,0.70
2022-11-05T17:40:28.323Z,0.75
2022-11-05T17:42:55.833Z,0.90
2022-11-05T17:45:23.365Z,0.80
2022-11-05T17:47:50.828Z,0.88
2022-11-05T17:50:18.560Z,0.60
2022-11-05T17:52:46.142Z,0.60
2022-11-05T17:55:17.928Z,0.80
2022-11-05T17:57:47.316Z,0.52
2022-11-05T18:00:17.373Z,0.70
2022-11-05T18:02:46.000Z,0.50
2022-11-05T18:05:14.282Z,0.70
2022-11-05T18:07:42.466Z,0.60
2022-11-05T18:10:10.637Z,0.60
2022-11-05T18:12:40.105Z,0.50
2022-11-05T18:15:08.640Z,0.50
2022-11-05T18:17:36.469Z,0.55
2022-11-05T18:20:04.181Z,0.60
2022-11-05T18:22:31.805Z,0.70
2022-11-05T18:24:59.270Z,0.77
2022-11-05T18:27:27.683Z,0.70
2022-11-05T18:29:56.549Z,0.60
2022-11-05T18:32:24.271Z,0.70
2022-11-05T18:34:51.864Z,0.57
2022-11-05T18:37:19.352Z,0.60
2022-11-05T18:39:47.785Z,0.60
2022-11-05T18:42:15.247Z,0.60
2022-11-05T18:44:42.734Z,0.85
2022-11-05T18:47:12.278Z,0.70
2022-11-05T18:49:39.768Z,0.80
2022-11-05T18:52:07.504Z,0.70
2022-11-05T18:54:35.098Z,0.80
2022-11-05T18:57:02.618Z,0.80
2022-11-05T18:59:39.476Z,0.75
2022-11-05T19:02:08.881Z,1.00
2022-11-05T19:04:50.570Z,0.77
2022-11-05T19:07:28.141Z,0.80
2022-11-05T19:09:55.650Z,0.90
2022-11-05T19:12:23.209Z,1.10
2022-11-05T19:14:50.689Z,0.90
2022-11-05T19:17:19.100Z,1.05
2022-11-05T19:19:51.759Z,0.93
2022-11-05T19:22:19.275Z,0.90
2022-11-05T19:24:46.771Z,1.00
2022-11-05T19:27:14.273Z,0.95
2022-11-05T19:29:41.736Z,0.88
2022-11-05T19:32:09.804Z,1.08
2022-11-05T19:34:37.585Z,1.13
2022-11-05T19:37:08.109Z,1.05
2022-11-05T19:39:36.240Z,0.82
2022-11-05T19:42:04.787Z,0.90
2022-11-05T19:44:32.501Z,1.00
2022-11-05T19:46:59.996Z,0.80
2022-11-05T19:49:28.123Z,0.80
2022-11-05T19:51:55.590Z,0.80
2022-11-05T19:54:24.411Z,0.90
2022-11-05T19:56:52.465Z,1.00
2022-11-05T19:59:20.162Z,0.88
2022-11-05T20:01:47.781Z,0.80
2022-11-05T20:04:18.595Z,0.93
2022-11-05T20:06:47.434Z,0.80
2022-11-05T20:09:21.749Z,1.15
2022-11-05T20:11:54.047Z,1.35
2022-11-05T20:14:21.642Z,0.82
2022-11-05T20:16:49.886Z,0.70
2022-11-05T20:19:20.032Z,0.80
2022-11-05T20:21:47.750Z,0.60
2022-11-05T20:24:23.754Z,0.63
2022-11-05T20:26:54.771Z,0.50
2022-11-05T20:29:22.909Z,0.50
2022-11-05T20:31:50.459Z,0.50
2022-11-05T20:34:17.932Z,0.50
2022-11-05T20:36:45.503Z,0.60
2022-11-05T20:39:12.959Z,0.60
2022-11-05T20:41:40.448Z,0.60
2022-11-05T20:44:09.260Z,0.82
2022-11-05T20:46:36.845Z,0.50
2022-11-05T20:49:04.332Z,0.50
2022-11-05T20:51:31.943Z,0.50
2022-11-05T20:54:02.938Z,0.45
2022-11-05T20:56:35.894Z,0.50
2022-11-05T20:59:05.269Z,0.40
2022-11-05T21:01:35.293Z,0.50
2022-11-05T21:04:04.170Z,0.50
2022-11-05T21:06:32.474Z,0.50
2022-11-05T21:09:00.182Z,0.50
2022-11-05T21:11:27.737Z,0.50
2022-11-05T21:13:55.672Z,0.50
2022-11-05T21:16:23.416Z,0.50
2022-11-05T21:18:52.479Z,0.40
2022-11-05T21:21:21.390Z,0.50
2022-11-05T21:23:49.295Z,0.40
2022-11-05T21:26:18.491Z,0.40
2022-11-05T21:28:46.518Z,0.40
2022-11-05T21:31:13.993Z,0.40
2022-11-05T21:33:41.474Z,0.40
2022-11-05T21:36:12.637Z,0.50
2022-11-05T21:38:41.356Z,0.50
2022-11-05T21:41:10.681Z,0.50
2022-11-05T21:43:39.471Z,0.40
2022-11-05T21:46:06.899Z,0.50
2022-11-05T21:48:34.808Z,0.40
2022-11-05T21:51:19.828Z,0.50
2022-11-05T21:54:06.604Z,0.40
2022-11-05T21:56:52.321Z,0.50
2022-11-05T21:59:39.669Z,0.40
2022-11-05T22:02:08.860Z,0.50
2022-11-05T22:04:38.737Z,0.60
2022-11-05T22:07:07.523Z,0.63
2022-11-05T22:09:37.165Z,1.02
2022-11-05T22:12:05.512Z,1.08
2022-11-05T22:14:33.916Z,0.57
2022-11-05T22:17:01.392Z,0.68
2022-11-05T22:19:29.002Z,0.60
2022-11-05T22:21:56.441Z,0.65
2022-11-05T22:24:24.613Z,0.70
2022-11-05T22:26:53.422Z,0.80
2022-11-05T22:29:20.918Z,0.68
2022-11-05T22:31:48.521Z,1.55
2022-11-05T22:34:16.354Z,0.60
2022-11-05T22:36:43.885Z,0.70
2022-11-05T22:39:11.759Z,0.90
2022-11-05T22:41:39.437Z,0.65
2022-11-05T22:44:10.203Z,0.68
2022-11-05T22:46:38.777Z,0.70
2022-11-05T22:49:07.036Z,0.60
2022-11-05T22:51:36.209Z,0.57
2022-11-05T22:54:04.404Z,0.60
2022-11-05T22:56:34.105Z,0.73
2022-11-05T22:59:01.850Z,0.60
2022-11-05T23:01:31.187Z,0.50
2022-11-05T23:03:59.856Z,0.70
2022-11-05T23:06:46.936Z,0.50
2022-11-05T23:09:35.074Z,0.55
2022-11-05T23:12:03.900Z,0.50
2022-11-05T23:14:32.032Z,0.45
2022-11-05T23:17:18.577Z,0.50
2022-11-05T23:20:03.879Z,0.50
2022-11-05T23:22:50.039Z,0.57
2022-11-05T23:25:19.388Z,0.40
2022-11-05T23:27:51.521Z,0.50
2022-11-05T23:30:21.543Z,0.40
2022-11-05T23:32:50.292Z,0.60
2022-11-05T23:35:18.123Z,0.68
2022-11-05T23:38:02.968Z,0.70
2022-11-05T23:40:52.501Z,0.50
2022-11-05T23:43:37.396Z,0.50
2022-11-05T23:46:22.718Z,0.50
2022-11-05T23:48:52.501Z,0.40
2022-11-05T23:51:19.936Z,0.57
2022-11-05T23:53:50.649Z,0.50
2022-11-05T23:56:18.297Z,0.43
2022-11-05T23:58:45.930Z,0.40
